Time,TemperatureF,DewpointF,PressureIn,WindDirection,WindDirectionDegrees,WindSpeedMPH,WindSpeedGustMPH,Humidity,HourlyPrecipIn,Conditions,Clouds,dailyrainin,SoftwareType,DateUTC
2013-06-03 00:02:00,57.6,53.1,30.01,ENE,71,1.0,7.0,85,0.00,,,0.00,Wunderground v.1.15,2013-06-03 05:02:00,
2013-06-03 00:12:00,57.4,52.6,30.01,ENE,67,2.0,3.0,84,0.00,,,0.00,Wunderground v.1.15,2013-06-03 05:12:00,
2013-06-03 00:22:00,57.3,52.5,30.01,ENE,67,1.0,1.0,84,0.00,,,0.00,Wunderground v.1.15,2013-06-03 05:22:00,
2013-06-03 00:32:00,57.2,52.4,30.01,ENE,63,1.0,1.0,84,0.00,,,0.00,Wunderground v.1.15,2013-06-03 05:32:00,
2013-06-03 00:42:00,57.1,52.3,30.01,ENE,61,0.0,0.0,84,0.00,,,0.00,Wunderground v.1.15,2013-06-03 05:42:00,
2013-06-03 00:52:00,56.9,52.4,30.01,ENE,74,0.0,1.0,85,0.00,,,0.00,Wunderground v.1.15,2013-06-03 05:52:00,
2013-06-03 01:02:00,56.8,52.7,30.01,ENE,74,0.0,9.0,86,0.00,,,0.00,Wunderground v.1.15,2013-06-03 06:02:00,
2013-06-03 01:12:00,56.6,52.5,30.01,ENE,74,0.0,0.0,86,0.00,,,0.00,Wunderground v.1.15,2013-06-03 06:12:00,
2013-06-03 01:22:00,56.4,52.3,30.01,ENE,74,0.0,0.0,86,0.00,,,0.00,Wunderground v.1.15,2013-06-03 06:22:00,
2013-06-03 01:32:00,56.1,52.3,30.01,ENE,74,0.0,0.0,87,0.00,,,0.00,Wunderground v.1.15,2013-06-03 06:32:00,
2013-06-03 01:42:00,55.8,52.3,30.01,NE,54,0.0,0.0,88,0.00,,,0.00,Wunderground v.1.15,2013-06-03 06:42:00,
2013-06-03 01:52:00,55.4,52.2,30.01,NE,54,0.0,0.0,89,0.00,,,0.00,Wunderground v.1.15,2013-06-03 06:52:00,
2013-06-03 02:02:00,55.2,52.3,30.01,NE,54,0.0,4.0,90,0.00,,,0.00,Wunderground v.1.15,2013-06-03 07:02:00,
2013-06-03 02:12:00,55.0,52.1,30.01,NE,54,0.0,0.0,90,0.00,,,0.00,Wunderground v.1.15,2013-06-03 07:12:00,
2013-06-03 02:22:00,54.7,51.8,30.01,NE,54,0.0,0.0,90,0.00,,,0.00,Wunderground v.1.15,2013-06-03 07:22:00,
2013-06-03 02:32:00,54.3,51.4,30.01,NE,54,0.0,0.0,90,0.00,,,0.00,Wunderground v.1.15,2013-06-03 07:32:00,
2013-06-03 02:42:00,53.9,51.0,30.01,NE,54,0.0,0.0,90,0.00,,,0.00,Wunderground v.1.15,2013-06-03 07:42:00,
2013-06-03 02:52:00,53.5,50.9,30.01,NE,54,0.0,0.0,91,0.00,,,0.00,Wunderground v.1.15,2013-06-03 07:52:00,
2013-06-03 03:02:00,53.1,50.5,30.01,NE,54,0.0,4.0,91,0.00,,,0.00,Wunderground v.1.15,2013-06-03 08:02:00,
2013-06-03 03:12:00,52.8,50.5,30.01,NE,54,0.0,0.0,92,0.00,,,0.00,Wunderground v.1.15,2013-06-03 08:12:00,
2013-06-03 03:22:00,52.4,50.1,30.01,NE,54,0.0,0.0,92,0.00,,,0.00,Wunderground v.1.15,2013-06-03 08:22:00,
2013-06-03 03:32:00,52.1,49.8,30.01,NE,54,0.0,0.0,92,0.00,,,0.00,Wunderground v.1.15,2013-06-03 08:32:00,
2013-06-03 03:42:00,51.9,49.9,30.01,NE,54,0.0,0.0,93,0.00,,,0.00,Wunderground v.1.15,2013-06-03 08:42:00,
2013-06-03 03:52:00,51.7,49.7,30.01,NE,54,0.0,0.0,93,0.00,,,0.00,Wunderground v.1.15,2013-06-03 08:52:00,
2013-06-03 04:02:00,51.6,49.9,30.01,NE,54,0.0,0.0,94,0.00,,,0.00,Wunderground v.1.15,2013-06-03 09:02:00,
2013-06-03 04:12:00,51.4,49.7,30.01,NE,54,0.0,0.0,94,0.00,,,0.00,Wunderground v.1.15,2013-06-03 09:12:00,
2013-06-03 04:22:00,51.2,49.5,30.01,NE,54,0.0,0.0,94,0.00,,,0.00,Wunderground v.1.15,2013-06-03 09:22:00,
2013-06-03 04:32:00,51.0,49.3,30.01,NE,54,0.0,0.0,94,0.00,,,0.00,Wunderground v.1.15,2013-06-03 09:32:00,
2013-06-03 04:42:00,50.7,49.0,30.01,NE,54,0.0,0.0,94,0.00,,,0.00,Wunderground v.1.15,2013-06-03 09:42:00,
2013-06-03 04:52:00,50.3,48.6,30.01,NE,54,0.0,0.0,94,0.00,,,0.00,Wunderground v.1.15,2013-06-03 09:52:00,
2013-06-03 05:02:00,49.9,48.2,30.02,NE,54,0.0,0.0,94,0.00,,,0.00,Wunderground v.1.15,2013-06-03 10:02:00,
2013-06-03 05:12:00,49.6,47.9,30.02,NE,54,0.0,0.0,94,0.00,,,0.00,Wunderground v.1.15,2013-06-03 10:12:00,
2013-06-03 05:22:00,49.3,47.6,30.02,NE,54,0.0,0.0,94,0.00,,,0.00,Wunderground v.1.15,2013-06-03 10:22:00,
2013-06-03 05:32:00,49.1,47.4,30.02,NE,54,0.0,0.0,94,0.00,,,0.00,Wunderground v.1.15,2013-06-03 10:32:00,
2013-06-03 05:42:00,49.1,47.7,30.03,NE,54,0.0,0.0,95,0.00,,,0.00,Wunderground v.1.15,2013-06-03 10:42:00,
2013-06-03 05:52:00,49.0,47.6,30.04,NE,54,0.0,0.0,95,0.00,,,0.00,Wunderground v.1.15,2013-06-03 10:52:00,
2013-06-03 06:02:00,48.8,47.4,30.04,NE,54,0.0,0.0,95,0.00,,,0.00,Wunderground v.1.15,2013-06-03 11:02:00,
2013-06-03 06:12:00,48.8,47.4,30.04,NE,54,0.0,0.0,95,0.00,,,0.00,Wunderground v.1.15,2013-06-03 11:12:00,
2013-06-03 06:22:00,49.0,47.9,30.05,NE,54,0.0,0.0,96,0.00,,,0.00,Wunderground v.1.15,2013-06-03 11:22:00,
2013-06-03 06:32:00,49.6,48.5,30.05,NE,54,0.0,0.0,96,0.00,,,0.00,Wunderground v.1.15,2013-06-03 11:32:00,
2013-06-03 06:42:00,50.1,49.0,30.05,NE,54,0.0,0.0,96,0.00,,,0.00,Wunderground v.1.15,2013-06-03 11:42:00,
2013-06-03 06:52:00,50.9,50.1,30.05,NE,55,0.0,0.0,97,0.00,,,0.00,Wunderground v.1.15,2013-06-03 11:52:00,
2013-06-03 07:02:00,51.6,50.8,30.06,NE,55,0.0,0.0,97,0.00,,,0.00,Wunderground v.1.15,2013-06-03 12:02:00,
2013-06-03 07:12:00,52.7,51.9,30.06,ENE,65,0.0,0.0,97,0.00,,,0.00,Wunderground v.1.15,2013-06-03 12:12:00,
2013-06-03 07:22:00,53.5,52.7,30.07,ENE,63,1.0,1.0,97,0.00,,,0.00,Wunderground v.1.15,2013-06-03 12:22:00,
2013-06-03 07:32:00,53.7,52.9,30.08,ENE,63,1.0,1.0,97,0.00,,,0.00,Wunderground v.1.15,2013-06-03 12:32:00,
2013-06-03 07:42:00,54.1,53.0,30.08,ENE,63,1.0,1.0,96,0.00,,,0.00,Wunderground v.1.15,2013-06-03 12:42:00,
2013-06-03 07:52:00,54.8,53.4,30.09,NE,46,1.0,2.0,95,0.00,,,0.00,Wunderground v.1.15,2013-06-03 12:52:00,
2013-06-03 08:02:00,55.7,54.0,30.09,NE,46,0.0,0.0,94,0.00,,,0.00,Wunderground v.1.15,2013-06-03 13:02:00,
2013-06-03 08:12:00,56.7,53.5,30.09,NE,46,1.0,2.0,89,0.00,,,0.00,Wunderground v.1.15,2013-06-03 13:12:00,
2013-06-03 08:22:00,57.5,51.7,30.10,NE,46,0.0,0.0,81,0.00,,,0.00,Wunderground v.1.15,2013-06-03 13:22:00,
2013-06-03 08:32:00,57.8,49.6,30.10,NE,51,0.0,0.0,74,0.00,,,0.00,Wunderground v.1.15,2013-06-03 13:32:00,
2013-06-03 08:42:00,58.4,49.8,30.11,NE,51,0.0,0.0,73,0.00,,,0.00,Wunderground v.1.15,2013-06-03 13:42:00,
2013-06-03 08:52:00,58.3,50.4,30.11,NE,56,0.0,3.0,75,0.00,,,0.00,Wunderground v.1.15,2013-06-03 13:52:00,
2013-06-03 09:01:00,59.0,50.4,30.10,ESE,119,1.0,1.0,73,0.00,,,0.00,Wunderground v.1.15,2013-06-03 14:01:00,
2013-06-03 09:12:00,59.5,49.7,30.10,ENE,65,2.0,2.0,70,0.00,,,0.00,Wunderground v.1.15,2013-06-03 14:12:00,
2013-06-03 09:22:00,60.0,50.6,30.10,ENE,67,1.0,2.0,71,0.00,,,0.00,Wunderground v.1.15,2013-06-03 14:22:00,
2013-06-03 09:32:00,60.5,51.4,30.09,ENE,61,1.0,1.0,72,0.00,,,0.00,Wunderground v.1.15,2013-06-03 14:32:00,
2013-06-03 09:42:00,60.7,51.2,30.09,ENE,61,2.0,3.0,71,0.00,,,0.00,Wunderground v.1.15,2013-06-03 14:42:00,
2013-06-03 09:52:00,60.5,49.1,30.08,ENE,63,3.0,7.0,66,0.00,,,0.00,Wunderground v.1.15,2013-06-03 14:52:00,
2013-06-03 10:02:00,60.7,49.7,30.08,East,98,2.0,2.0,67,0.00,,,0.00,Wunderground v.1.15,2013-06-03 15:02:00,
2013-06-03 10:12:00,60.4,50.2,30.07,SE,139,3.0,7.0,69,0.00,,,0.00,Wunderground v.1.15,2013-06-03 15:12:00,
2013-06-03 10:22:00,61.8,51.1,30.07,East,100,3.0,6.0,68,0.00,,,0.00,Wunderground v.1.15,2013-06-03 15:22:00,
2013-06-03 10:32:00,61.3,49.4,30.07,ENE,58,2.0,4.0,65,0.00,,,0.00,Wunderground v.1.15,2013-06-03 15:32:00,
2013-06-03 10:42:00,61.3,49.8,30.07,ESE,118,2.0,2.0,66,0.00,,,0.00,Wunderground v.1.15,2013-06-03 15:42:00,
2013-06-03 10:52:00,62.5,52.2,30.07,ESE,102,2.0,5.0,69,0.00,,,0.00,Wunderground v.1.15,2013-06-03 15:52:00,
2013-06-03 11:02:00,62.7,51.6,30.07,ENE,74,2.0,2.0,67,0.00,,,0.00,Wunderground v.1.15,2013-06-03 16:02:00,
2013-06-03 11:12:00,62.4,51.3,30.07,ESE,115,3.0,3.0,67,0.00,,,0.00,Wunderground v.1.15,2013-06-03 16:12:00,
2013-06-03 11:22:00,62.6,50.2,30.06,East,82,2.0,2.0,64,0.00,,,0.00,Wunderground v.1.15,2013-06-03 16:22:00,
2013-06-03 11:32:00,63.4,50.6,30.06,SSE,152,4.0,9.0,63,0.00,,,0.00,Wunderground v.1.15,2013-06-03 16:32:00,
2013-06-03 11:42:00,63.4,51.0,30.06,ENE,57,4.0,8.0,64,0.00,,,0.00,Wunderground v.1.15,2013-06-03 16:42:00,
2013-06-03 11:52:00,63.7,51.7,30.06,ENE,63,4.0,7.0,65,0.00,,,0.00,Wunderground v.1.15,2013-06-03 16:52:00,
2013-06-03 12:02:00,63.5,51.9,30.06,ESE,115,4.0,9.0,66,0.00,,,0.00,Wunderground v.1.15,2013-06-03 17:02:00,
2013-06-03 12:12:00,64.7,53.1,30.06,East,90,4.0,6.0,66,0.00,,,0.00,Wunderground v.1.15,2013-06-03 17:12:00,
2013-06-03 12:22:00,65.3,52.8,30.05,ENE,63,2.0,4.0,64,0.00,,,0.00,Wunderground v.1.15,2013-06-03 17:22:00,
2013-06-03 12:32:00,64.3,52.3,30.05,NE,46,3.0,3.0,65,0.00,,,0.00,Wunderground v.1.15,2013-06-03 17:32:00,
2013-06-03 12:41:00,65.1,53.5,30.05,East,94,4.0,4.0,66,0.00,,,0.00,Wunderground v.1.15,2013-06-03 17:41:00,
2013-06-03 12:52:00,65.2,53.1,30.04,ESE,111,2.0,2.0,65,0.00,,,0.00,Wunderground v.1.15,2013-06-03 17:52:00,
2013-06-03 13:02:00,65.9,52.5,30.04,NE,49,2.0,11.0,62,0.00,,,0.00,Wunderground v.1.15,2013-06-03 18:02:00,
2013-06-03 13:12:00,65.3,51.9,30.04,South,174,2.0,2.0,62,0.00,,,0.00,Wunderground v.1.15,2013-06-03 18:12:00,
2013-06-03 13:22:00,65.2,51.8,30.04,ESE,105,3.0,3.0,62,0.00,,,0.00,Wunderground v.1.15,2013-06-03 18:22:00,
2013-06-03 13:32:00,65.2,52.7,30.03,East,88,2.0,2.0,64,0.00,,,0.00,Wunderground v.1.15,2013-06-03 18:32:00,
2013-06-03 13:42:00,66.0,53.9,30.03,East,93,2.0,2.0,65,0.00,,,0.00,Wunderground v.1.15,2013-06-03 18:42:00,
2013-06-03 14:02:00,66.3,53.3,30.02,SSE,165,3.0,13.0,63,0.00,,,0.00,Wunderground v.1.15,2013-06-03 19:02:00,
2013-06-03 14:12:00,66.1,53.1,30.02,ESE,120,3.0,3.0,63,0.00,,,0.00,Wunderground v.1.15,2013-06-03 19:12:00,
2013-06-03 14:22:00,66.5,53.1,30.02,SSE,161,2.0,2.0,62,0.00,,,0.00,Wunderground v.1.15,2013-06-03 19:22:00,
2013-06-03 14:32:00,66.8,52.9,30.02,SSE,155,3.0,3.0,61,0.00,,,0.00,Wunderground v.1.15,2013-06-03 19:32:00,
2013-06-03 14:42:00,66.7,52.8,30.02,SSW,201,3.0,3.0,61,0.00,,,0.00,Wunderground v.1.15,2013-06-03 19:42:00,
2013-06-03 14:52:00,67.6,53.7,30.02,East,101,3.0,3.0,61,0.00,,,0.00,Wunderground v.1.15,2013-06-03 19:52:00,
2013-06-03 15:02:00,65.8,52.4,30.02,ENE,73,3.0,3.0,62,0.00,,,0.00,Wunderground v.1.15,2013-06-03 20:02:00,
2013-06-03 15:12:00,66.3,53.8,30.02,ESE,105,2.0,2.0,64,0.00,,,0.00,Wunderground v.1.15,2013-06-03 20:12:00,
2013-06-03 15:22:00,66.3,52.0,30.01,ESE,106,2.0,2.0,60,0.00,,,0.00,Wunderground v.1.15,2013-06-03 20:22:00,
2013-06-03 15:32:00,67.6,54.6,30.01,SSE,150,2.0,2.0,63,0.00,,,0.00,Wunderground v.1.15,2013-06-03 20:32:00,
2013-06-03 15:42:00,68.3,54.3,30.01,East,90,3.0,7.0,61,0.00,,,0.00,Wunderground v.1.15,2013-06-03 20:42:00,
2013-06-03 15:52:00,67.2,53.3,30.01,ESE,108,3.0,4.0,61,0.00,,,0.00,Wunderground v.1.15,2013-06-03 20:52:00,
2013-06-03 16:02:00,67.5,54.5,30.01,ENE,59,3.0,3.0,63,0.00,,,0.00,Wunderground v.1.15,2013-06-03 21:02:00,
2013-06-03 16:12:00,67.2,53.3,30.00,East,98,2.0,2.0,61,0.00,,,0.00,Wunderground v.1.15,2013-06-03 21:12:00,
2013-06-03 16:22:00,66.4,52.5,30.00,SE,124,2.0,2.0,61,0.00,,,0.00,Wunderground v.1.15,2013-06-03 21:22:00,
2013-06-03 16:32:00,67.7,55.5,30.00,SSE,148,2.0,4.0,65,0.00,,,0.00,Wunderground v.1.15,2013-06-03 21:32:00,
2013-06-03 16:42:00,66.9,53.5,30.00,ENE,70,3.0,3.0,62,0.00,,,0.00,Wunderground v.1.15,2013-06-03 21:42:00,
2013-06-03 16:52:00,67.7,54.6,30.00,East,86,1.0,2.0,63,0.00,,,0.00,Wunderground v.1.15,2013-06-03 21:52:00,
2013-06-03 17:02:00,68.2,54.2,30.00,ENE,65,3.0,3.0,61,0.00,,,0.00,Wunderground v.1.15,2013-06-03 22:02:00,
2013-06-03 17:12:00,68.0,53.6,30.00,ENE,63,2.0,2.0,60,0.00,,,0.00,Wunderground v.1.15,2013-06-03 22:12:00,
2013-06-03 17:22:00,68.3,53.9,30.00,SE,135,2.0,3.0,60,0.00,,,0.00,Wunderground v.1.15,2013-06-03 22:22:00,
2013-06-03 17:32:00,67.9,53.5,29.99,ESE,110,2.0,3.0,60,0.00,,,0.00,Wunderground v.1.15,2013-06-03 22:32:00,
2013-06-03 17:42:00,68.3,53.9,29.99,East,97,3.0,3.0,60,0.00,,,0.00,Wunderground v.1.15,2013-06-03 22:42:00,
2013-06-03 17:52:00,67.8,53.4,29.99,SE,126,2.0,2.0,60,0.00,,,0.00,Wunderground v.1.15,2013-06-03 22:52:00,
2013-06-03 18:02:00,67.8,53.4,29.99,East,98,2.0,7.0,60,0.00,,,0.00,Wunderground v.1.15,2013-06-03 23:02:00,
2013-06-03 18:12:00,67.9,53.5,29.99,East,88,2.0,5.0,60,0.00,,,0.00,Wunderground v.1.15,2013-06-03 23:12:00,
2013-06-03 18:22:00,67.8,54.3,29.99,NE,49,2.0,3.0,62,0.00,,,0.00,Wunderground v.1.15,2013-06-03 23:22:00,
2013-06-03 18:32:00,67.5,54.0,29.98,East,96,3.0,3.0,62,0.00,,,0.00,Wunderground v.1.15,2013-06-03 23:32:00,
2013-06-03 18:42:00,66.9,53.5,29.99,ESE,115,2.0,3.0,62,0.00,,,0.00,Wunderground v.1.15,2013-06-03 23:42:00,
2013-06-03 18:52:00,66.6,53.6,29.99,East,90,1.0,6.0,63,0.00,,,0.00,Wunderground v.1.15,2013-06-03 23:52:00,
2013-06-03 19:02:00,66.2,52.8,30.00,ESE,105,3.0,3.0,62,0.00,,,0.00,Wunderground v.1.15,2013-06-04 00:02:00,
2013-06-03 19:12:00,66.0,52.6,30.00,East,91,2.0,3.0,62,0.00,,,0.00,Wunderground v.1.15,2013-06-04 00:12:00,
2013-06-03 19:22:00,65.9,52.9,30.00,East,101,2.0,2.0,63,0.00,,,0.00,Wunderground v.1.15,2013-06-04 00:22:00,
2013-06-03 19:32:00,65.5,53.0,30.00,ESE,110,1.0,1.0,64,0.00,,,0.00,Wunderground v.1.15,2013-06-04 00:32:00,
2013-06-03 19:42:00,65.2,52.7,30.00,ESE,110,1.0,1.0,64,0.00,,,0.00,Wunderground v.1.15,2013-06-04 00:42:00,
2013-06-03 19:52:00,64.8,52.8,30.01,ESE,110,0.0,0.0,65,0.00,,,0.00,Wunderground v.1.15,2013-06-04 00:52:00,
2013-06-03 20:02:00,64.2,53.0,30.01,ESE,110,0.0,8.0,67,0.00,,,0.00,Wunderground v.1.15,2013-06-04 01:02:00,
2013-06-03 20:12:00,63.5,53.1,30.02,ESE,110,0.0,0.0,69,0.00,,,0.00,Wunderground v.1.15,2013-06-04 01:12:00,
2013-06-03 20:22:00,62.2,53.4,30.02,ESE,110,0.0,0.0,73,0.00,,,0.00,Wunderground v.1.15,2013-06-04 01:22:00,
2013-06-03 20:32:00,61.3,53.7,30.02,ESE,110,0.0,0.0,76,0.00,,,0.00,Wunderground v.1.15,2013-06-04 01:32:00,
2013-06-03 20:42:00,60.3,53.8,30.02,ESE,110,0.0,0.0,79,0.00,,,0.00,Wunderground v.1.15,2013-06-04 01:42:00,
2013-06-03 20:52:00,60.2,54.0,30.02,ESE,110,0.0,0.0,80,0.00,,,0.00,Wunderground v.1.15,2013-06-04 01:52:00,
2013-06-03 21:02:00,59.6,53.8,30.03,ESE,110,0.0,3.0,81,0.00,,,0.00,Wunderground v.1.15,2013-06-04 02:02:00,
2013-06-03 21:12:00,59.0,53.5,30.03,ESE,110,0.0,0.0,82,0.00,,,0.00,Wunderground v.1.15,2013-06-04 02:12:00,
2013-06-03 21:22:00,59.0,53.8,30.03,ESE,110,0.0,0.0,83,0.00,,,0.00,Wunderground v.1.15,2013-06-04 02:22:00,
2013-06-03 21:32:00,58.4,53.6,30.03,ESE,110,0.0,0.0,84,0.00,,,0.00,Wunderground v.1.15,2013-06-04 02:32:00,
2013-06-03 21:42:00,57.8,53.3,30.03,ESE,110,0.0,0.0,85,0.00,,,0.00,Wunderground v.1.15,2013-06-04 02:42:00,
2013-06-03 21:52:00,57.5,53.3,30.03,ESE,110,0.0,0.0,86,0.00,,,0.00,Wunderground v.1.15,2013-06-04 02:52:00,
2013-06-03 22:02:00,57.4,53.6,30.03,ESE,110,0.0,0.0,87,0.00,,,0.00,Wunderground v.1.15,2013-06-04 03:02:00,
2013-06-03 22:12:00,57.2,53.0,30.03,ESE,110,0.0,0.0,86,0.00,,,0.00,Wunderground v.1.15,2013-06-04 03:12:00,
2013-06-03 22:22:00,57.0,52.9,30.03,ESE,110,0.0,0.0,86,0.00,,,0.00,Wunderground v.1.15,2013-06-04 03:22:00,
2013-06-03 22:32:00,57.0,53.2,30.03,ESE,110,0.0,0.0,87,0.00,,,0.00,Wunderground v.1.15,2013-06-04 03:32:00,
2013-06-03 22:42:00,56.6,53.1,30.03,ESE,110,0.0,0.0,88,0.00,,,0.00,Wunderground v.1.15,2013-06-04 03:42:00,
2013-06-03 22:52:00,56.5,53.3,30.03,ESE,110,0.0,0.0,89,0.00,,,0.00,Wunderground v.1.15,2013-06-04 03:52:00,
2013-06-03 23:02:00,56.2,53.3,30.02,ESE,110,0.0,2.0,90,0.00,,,0.00,Wunderground v.1.15,2013-06-04 04:02:00,
2013-06-03 23:12:00,56.0,53.1,30.02,ESE,110,0.0,0.0,90,0.00,,,0.00,Wunderground v.1.15,2013-06-04 04:12:00,
2013-06-03 23:22:00,56.0,53.1,30.02,ESE,110,0.0,0.0,90,0.00,,,0.00,Wunderground v.1.15,2013-06-04 04:22:00,
2013-06-03 23:32:00,55.8,52.9,30.03,ESE,110,0.0,0.0,90,0.00,,,0.00,Wunderground v.1.15,2013-06-04 04:32:00,
2013-06-03 23:42:00,55.6,52.7,30.03,ESE,110,0.0,0.0,90,0.00,,,0.00,Wunderground v.1.15,2013-06-04 04:42:00,
2013-06-03 23:52:00,55.0,52.1,30.04,ESE,110,0.0,0.0,90,0.00,,,0.00,Wunderground v.1.15,2013-06-04 04:52:00,